Details From EGLL - London Heathrow
To TNCM - St Maarten - Princess Juliana Intl
Flight Number -
Tags Decoded
Created
Modified
Stats Distance 3,562 nm / 6,596 km
Max Altitude 0 ft / 0 m
Waypoints 7
Social Downloads 12
Likes 0
Share VATSIM

Download

Looking for another format? Having issues loading an existing format? Contact us
Advertisement - Login to hide

Notes

Decoded

Route

EGLL PAVLO PJM90 PJM09 PJM07 PJM02 TNCM

ID Type Via Altitude Latitude Longitude Leg Dist Tot Dist Heading (true) Name
O EGLL APT - 0 ft / 0 m 51.46477˚ -0.48695˚ - 0 nm - -
PAVLO FIX - 0 ft / 0 m 50.93472˚ -5.89556˚ 205 nm 205 nm 263° / 259° -
PJM90 FIX - 0 ft / 0 m 18.12665˚ -63.24579˚ 3340 nm 3546 nm 256° / 220° -
PJM09 FIX - 0 ft / 0 m 18.02230˚ -63.27493˚ 6 nm 3552 nm 195° / 195° -
PJM07 FIX - 0 ft / 0 m 18.02582˚ -63.24012˚ 1 nm 3554 nm 84° / 84° -
PJM02 FIX - 0 ft / 0 m 18.03461˚ -63.15309˚ 4 nm 3559 nm 84° / 84° -
O TNCM APT - 0 ft / 0 m 18.03937˚ -63.11961˚ 1 nm 3561 nm 81° / 82° -

Altitude Profile

Advertisement - Login to hide

Weather


0- 5 10 15 20 25 30 35+ Temperature / ° C

Clouds and Precipitation
Forecast for 2018-05-24 00:00 UTC. Updated 2 hours ago

Ground ~20,000 ft ~40,000 ft Winds

EGLL

Details ICAO EGLL (LHR)
Name London Heathrow
Region United Kingdom
Timezone Europe/London (UTC+1.0)
Stats Elevation 83 ft / 25 m (AMSL)
Location 51.471218° -0.460978°
Runways 2
Magnetic Variation 0.495° W

METAR

EGLL 240120Z AUTO 02005KT 330V060 7000 -RA //////TCU 11/10 Q1022

Decode

TAF

TAF AMD EGLL 240119Z 2401/2506 03006KT 9999 FEW040 TEMPO 2401/2424 7000 SHRA PROB40 TEMPO 2401/2410 3000 +TSRA BKN010 BKN040CB PROB40 TEMPO 2414/2421 VRB15G25KT 3000 +TSRA TEMPO 2500/2506 7000 BKN010 PROB30 TEMPO 2503/2506 4000 BR BKN006

Decode

Departure Runways

ID Width Length Bearing (true) Bearing (mag) Surface Threshold Offset Overrun Length
09L 164 ft / 50 m 12,811 ft / 3,905 m 89.64° 90.14° Asphalt 1,004 ft / 306 m 0 ft / 0 m
09R 164 ft / 50 m 12,019 ft / 3,663 m 89.67° 90.17° Asphalt 1,007 ft / 307 m 0 ft / 0 m
27L 164 ft / 50 m 12,019 ft / 3,663 m 269.71° 270.21° Asphalt 0 ft / 0 m 69 ft / 21 m
27R 164 ft / 50 m 12,811 ft / 3,905 m 269.69° 270.19° Asphalt 0 ft / 0 m 69 ft / 21 m

TNCM

Details ICAO TNCM (SXM)
Name St Maarten - Princess Juliana Intl
Region Caribbean Netherlands, Aruba, Curaçao, Sint Maarten
Timezone Unknown (UTC+0.0)
Stats Elevation 12 ft / 4 m (AMSL)
Location 18.040889° -63.108974°
Runways 1
Magnetic Variation 14.337° W

METAR

TNCM 240100Z 08012KT 060V130 9999 SCT019 27/22 Q1019 NOSIG RMK A3011

Decode

TAF

TAF TNCM 232339Z 2400/2424 08008KT P6SM FEW020 FM240400 07006KT P6SM VCSH SCT018 SCT030 FM241400 10015KT P6SM SCT022

Decode

Destination Runways

ID Width Length Bearing (true) Bearing (mag) Surface Threshold Offset Overrun Length
10 148 ft / 45 m 7,464 ft / 2,275 m 81.43° 95.77° Asphalt 0 ft / 0 m 151 ft / 46 m
28 148 ft / 45 m 7,464 ft / 2,275 m 261.44° 275.78° Asphalt 397 ft / 121 m 0 ft / 0 m

Popular Alternatives